Time;durP1;ratioP1;P1;durP2;ratioP2;P2;SDS_P1;SDS_P2;PMS_P1;PMS_P2;Temp;Humidity;BMP_temperature;BMP_pressure;BME280_temperature;BME280_humidity;BME280_pressure;Samples;Min_cycle;Max_cycle;Signal;HPM_P1;HPM_P2
2021/10/17 00:01:51;;;;;;;7.40;1.73;;;8.40;99.90;;;6.97;88.56;101152.22;4994459;28;20070;-79
2021/10/17 00:04:17;;;;;;;11.63;1.52;;;8.50;99.90;;;6.98;88.27;101152.19;4997436;28;20083;-79
2021/10/17 00:06:42;;;;;;;4.90;1.40;;;8.40;99.90;;;6.93;88.63;101148.84;4963980;28;20051;-79
2021/10/17 00:09:09;;;;;;;12.60;1.48;;;8.40;99.90;;;6.92;88.76;101148.88;5018506;28;20064;-78
2021/10/17 00:11:37;;;;;;;5.45;1.50;;;8.40;99.90;;;6.87;89.01;101141.13;5031085;28;20118;-77
2021/10/17 00:14:03;;;;;;;8.52;1.17;;;8.40;99.90;;;6.85;88.38;101136.84;4978050;28;20048;-78
2021/10/17 00:16:29;;;;;;;4.78;1.27;;;8.40;99.90;;;6.87;88.81;101140.25;5001827;28;20056;-78
2021/10/17 00:18:55;;;;;;;12.02;1.75;;;8.40;99.90;;;6.87;88.32;101138.50;4986131;28;20068;-78
2021/10/17 00:21:21;;;;;;;5.65;1.42;;;8.30;99.90;;;6.88;88.03;101134.13;5017843;28;20061;-78
2021/10/17 00:23:47;;;;;;;3.78;1.48;;;8.40;99.90;;;6.86;87.98;101118.44;5000661;28;20365;-78
2021/10/17 00:26:13;;;;;;;7.13;1.30;;;8.40;99.90;;;6.86;87.85;101134.16;5009732;28;20416;-77
2021/10/17 00:28:40;;;;;;;6.60;2.05;;;8.30;99.90;;;6.84;88.74;101132.47;5059753;28;20075;-78
2021/10/17 00:31:06;;;;;;;5.47;1.35;;;8.30;99.90;;;6.86;87.90;101133.31;5007947;28;20086;-78
2021/10/17 00:33:32;;;;;;;7.57;1.25;;;8.40;99.90;;;6.89;88.30;101133.22;5020023;28;20059;-78
2021/10/17 00:35:58;;;;;;;2.88;1.15;;;8.30;99.90;;;6.89;88.64;101135.84;5018231;28;20137;-78
2021/10/17 00:38:24;;;;;;;5.72;1.20;;;8.40;99.90;;;6.84;88.70;101129.88;5003773;28;20077;-78
2021/10/17 00:40:53;;;;;;;4.25;1.08;;;8.30;99.90;;;6.82;88.91;101123.81;5033338;28;20085;-78
2021/10/17 00:43:20;;;;;;;3.30;1.08;;;8.30;99.90;;;6.79;89.21;101127.38;4986351;28;20957;-78
2021/10/17 00:45:46;;;;;;;9.60;1.33;;;8.30;99.90;;;6.79;89.04;101132.59;5001290;28;20108;-78
2021/10/17 00:48:12;;;;;;;4.95;1.30;;;8.30;99.90;;;6.79;88.75;101124.75;5028113;28;20145;-77
2021/10/17 00:50:38;;;;;;;5.88;1.15;;;8.30;99.90;;;6.80;88.79;101123.84;5021403;28;20071;-78
2021/10/17 00:53:04;;;;;;;9.93;1.58;;;8.20;99.90;;;6.76;88.97;101120.44;5040789;28;20064;-78
2021/10/17 00:55:31;;;;;;;7.45;1.25;;;8.20;99.90;;;6.78;88.71;101115.16;5051141;28;20105;-77
2021/10/17 00:58:00;;;;;;;3.47;1.30;;;8.30;99.90;;;6.75;88.94;101115.25;5003825;28;20050;-77
2021/10/17 01:00:27;;;;;;;4.10;1.02;;;8.20;99.90;;;6.74;89.00;101118.78;5016134;28;20063;-77
2021/10/17 01:02:54;;;;;;;6.65;1.98;;;8.20;99.90;;;6.76;88.43;101109.97;5014371;28;20542;-77
2021/10/17 01:05:20;;;;;;;4.50;1.77;;;8.30;99.90;;;6.77;88.30;101113.44;5003742;28;20061;-78
2021/10/17 01:07:47;;;;;;;5.53;1.83;;;8.30;99.90;;;6.76;88.73;101115.22;4999058;28;20057;-77
2021/10/17 01:10:17;;;;;;;6.00;1.52;;;8.20;99.90;;;6.76;88.64;101109.97;5003338;28;20075;-78
2021/10/17 01:12:44;;;;;;;11.90;3.45;;;8.30;99.90;;;6.78;88.84;101107.31;4984566;28;20125;-77
2021/10/17 01:15:11;;;;;;;11.18;2.70;;;8.30;99.90;;;6.80;88.77;101113.38;4976858;28;20061;-77
2021/10/17 01:17:37;;;;;;;5.75;2.25;;;8.30;99.90;;;6.80;89.35;101117.75;5027615;28;20160;-78
2021/10/17 01:20:09;;;;;;;5.38;1.83;;;8.30;99.90;;;6.75;89.96;101108.25;5029450;28;20047;-78
2021/10/17 01:22:38;;;;;;;5.75;1.85;;;8.20;99.90;;;6.71;89.73;101103.97;5009567;28;20063;-78
2021/10/17 01:25:05;;;;;;;4.25;1.27;;;8.20;99.90;;;6.67;90.74;101091.88;5023239;28;20448;-78
2021/10/17 01:27:31;;;;;;;5.43;1.35;;;8.20;99.90;;;6.67;89.89;101099.72;5047972;28;20059;-78
2021/10/17 01:29:57;;;;;;;5.30;1.40;;;8.20;99.90;;;6.65;90.41;101092.81;5010992;28;20065;-77
2021/10/17 01:32:25;;;;;;;4.07;1.10;;;8.20;99.90;;;6.65;89.94;101091.06;5016719;28;20055;-78
2021/10/17 01:34:51;;;;;;;3.30;1.15;;;8.20;99.90;;;6.66;90.19;101087.53;5012793;28;20524;-78
2021/10/17 01:37:17;;;;;;;11.13;1.65;;;8.20;99.90;;;6.67;90.31;101096.25;4980402;28;20068;-78
2021/10/17 01:39:43;;;;;;;7.45;1.73;;;8.20;99.90;;;6.67;89.82;101089.25;5062415;28;20179;-78
2021/10/17 01:42:09;;;;;;;4.72;1.50;;;8.20;99.90;;;6.69;89.21;101074.38;5032116;28;20123;-78
2021/10/17 01:44:36;;;;;;;5.70;1.35;;;8.20;99.90;;;6.65;89.71;101064.91;5028753;28;20051;-78
2021/10/17 01:47:07;;;;;;;6.85;1.98;;;8.10;99.90;;;6.60;89.75;101064.13;5022200;28;20060;-78
2021/10/17 01:49:34;;;;;;;11.50;1.60;;;8.10;99.90;;;6.61;90.08;101065.88;5031358;28;20151;-78
2021/10/17 01:52:00;;;;;;;6.20;1.73;;;8.00;99.90;;;6.52;90.13;101048.66;5013436;28;20177;-78
2021/10/17 01:54:26;;;;;;;8.55;2.60;;;8.10;99.90;;;6.53;89.94;101100.06;4998575;28;20071;-78
2021/10/17 01:56:52;;;;;;;10.18;2.60;;;8.10;99.90;;;6.51;90.18;101090.53;5023070;28;21553;-77
2021/10/17 01:59:18;;;;;;;8.88;2.75;;;8.00;99.90;;;6.55;90.40;101089.56;5029682;28;22837;-77
2021/10/17 02:01:51;;;;;;;9.57;3.15;;;8.00;99.90;;;6.54;89.54;101085.22;5022425;28;20542;-77
2021/10/17 02:04:17;;;;;;;7.10;1.95;;;8.00;99.90;;;6.54;89.27;101086.09;5005378;28;20052;-78
2021/10/17 02:06:43;;;;;;;3.88;1.50;;;8.10;99.90;;;6.60;88.43;101084.22;5027331;28;20534;-78
2021/10/17 02:09:09;;;;;;;9.65;1.63;;;8.10;99.90;;;6.58;88.38;101081.63;5035612;28;20427;-78
2021/10/17 02:11:35;;;;;;;2.95;1.23;;;8.10;99.90;;;6.62;88.85;101075.44;5031745;28;20101;-78
2021/10/17 02:14:03;;;;;;;4.20;1.40;;;8.10;99.90;;;6.62;88.28;101072.81;5048916;28;20058;-78
2021/10/17 02:16:29;;;;;;;4.43;1.40;;;8.10;99.90;;;6.65;87.92;101070.13;5035319;28;20074;-77
2021/10/17 02:18:55;;;;;;;7.30;1.67;;;8.20;99.90;;;6.69;87.40;101077.00;5014737;28;20048;-77
2021/10/17 02:21:21;;;;;;;4.22;1.33;;;8.20;99.90;;;6.70;87.60;101077.88;5025513;28;20067;-77
2021/10/17 02:23:48;;;;;;;6.25;1.35;;;8.20;99.90;;;6.73;87.23;101072.53;5056702;28;20526;-78
2021/10/17 02:26:17;;;;;;;6.00;1.30;;;8.20;99.90;;;6.71;86.97;101064.72;4980503;28;20716;-77
2021/10/17 02:28:43;;;;;;;4.68;1.33;;;8.20;99.90;;;6.75;87.01;101062.91;5006511;28;20070;-78
2021/10/17 02:31:09;;;;;;;4.28;1.33;;;8.20;99.90;;;6.73;87.38;101062.94;5026323;28;20076;-77
2021/10/17 02:33:35;;;;;;;6.70;1.35;;;8.20;99.90;;;6.73;87.11;101057.69;5007049;28;20066;-77
2021/10/17 02:36:02;;;;;;;3.88;1.02;;;8.20;99.90;;;6.70;87.45;101055.16;5028093;28;20063;-77
2021/10/17 02:38:28;;;;;;;7.55;1.35;;;8.20;99.90;;;6.73;87.12;101044.59;4993125;28;20151;-78
2021/10/17 02:40:54;;;;;;;5.15;1.27;;;8.20;99.90;;;6.74;86.75;101053.34;5015606;28;20114;-78
2021/10/17 02:43:23;;;;;;;9.77;1.77;;;8.20;99.90;;;6.70;86.89;101046.47;4986443;28;20096;-77
2021/10/17 02:45:49;;;;;;;7.75;1.70;;;8.20;99.90;;;6.70;86.90;101041.22;5005644;28;20071;-78
2021/10/17 02:48:15;;;;;;;9.57;1.23;;;8.20;99.90;;;6.69;86.84;101037.72;4996467;28;20094;-77
2021/10/17 02:50:42;;;;;;;7.47;1.48;;;8.20;99.90;;;6.72;86.51;101048.13;5003481;28;20419;-78
2021/10/17 02:53:08;;;;;;;4.53;1.13;;;8.20;99.90;;;6.74;86.32;101037.66;5021735;28;20583;-77
2021/10/17 02:55:37;;;;;;;7.57;1.88;;;8.20;99.90;;;6.70;86.99;101028.16;5019710;28;20072;-77
2021/10/17 02:58:03;;;;;;;12.73;1.45;;;7.80;99.90;;;6.71;86.70;101035.94;5016440;28;20150;-78
2021/10/17 03:00:29;;;;;;;4.63;1.20;;;8.20;99.90;;;6.69;86.40;101032.50;4980761;28;20071;-78
2021/10/17 03:02:55;;;;;;;6.25;1.73;;;8.20;99.90;;;6.72;86.17;101032.44;5028232;28;20061;-78
2021/10/17 03:05:21;;;;;;;5.60;1.10;;;8.20;99.90;;;6.74;86.11;101028.03;5013043;28;20135;-78
2021/10/17 03:07:47;;;;;;;12.15;1.17;;;8.20;99.90;;;6.73;85.87;101023.69;4992113;28;20057;-78
2021/10/17 03:10:13;;;;;;;5.35;1.45;;;8.20;99.90;;;6.75;85.85;101021.88;5000472;28;20082;-78
2021/10/17 03:12:41;;;;;;;4.80;1.20;;;8.20;99.90;;;6.77;85.77;101022.69;5027757;28;20033;-78
2021/10/17 03:15:08;;;;;;;5.95;1.10;;;8.30;99.90;;;6.74;85.99;101017.56;5011825;28;20055;-78
2021/10/17 03:17:36;;;;;;;9.90;1.13;;;8.20;99.90;;;6.79;85.27;101012.19;5027253;28;20152;-77
2021/10/17 03:20:03;;;;;;;6.18;1.40;;;8.30;99.90;;;6.77;85.77;101009.63;5016429;28;20086;-77
2021/10/17 03:22:29;;;;;;;3.58;1.38;;;8.30;99.90;;;6.73;86.26;101012.34;5039877;28;20567;-78
2021/10/17 03:24:58;;;;;;;9.00;1.30;;;8.20;99.90;;;6.71;85.66;101007.16;5060944;28;20074;-77
2021/10/17 03:27:25;;;;;;;8.98;1.75;;;8.20;99.90;;;6.73;85.93;101007.13;5038008;28;20032;-77
2021/10/17 03:29:51;;;;;;;3.92;1.17;;;8.20;99.90;;;6.73;85.96;101005.34;5024429;28;20122;-78
2021/10/17 03:32:17;;;;;;;10.98;1.45;;;8.30;99.90;;;6.77;85.34;101000.91;5001792;28;20063;-77
2021/10/17 03:34:43;;;;;;;8.02;1.60;;;8.20;99.90;;;6.74;85.40;100999.25;5021056;28;20093;-78
2021/10/17 03:37:09;;;;;;;5.60;1.17;;;8.20;99.90;;;6.73;85.35;101005.34;5029148;28;20082;-78
2021/10/17 03:39:35;;;;;;;6.15;1.10;;;8.20;99.90;;;6.71;85.46;101001.91;5038664;28;20074;-77
2021/10/17 03:42:03;;;;;;;4.75;1.30;;;8.20;99.90;;;6.70;85.84;100992.38;5004412;28;20149;-77
2021/10/17 03:44:29;;;;;;;4.63;1.23;;;8.20;99.90;;;6.72;85.86;100994.94;5003842;28;20110;-78
2021/10/17 03:46:56;;;;;;;3.85;1.00;;;8.20;99.90;;;6.70;85.92;100994.13;5055213;28;20090;-77
2021/10/17 03:49:22;;;;;;;7.40;1.40;;;8.20;99.90;;;6.72;85.75;100994.94;5025290;28;20186;-77
2021/10/17 03:51:48;;;;;;;9.30;1.80;;;8.20;99.90;;;6.71;86.12;100987.97;4991138;28;20079;-77
2021/10/17 03:54:16;;;;;;;3.20;0.90;;;8.20;99.90;;;6.70;85.55;100984.50;4995822;28;20053;-77
2021/10/17 03:56:42;;;;;;;6.47;1.10;;;8.20;99.90;;;6.69;86.49;100984.53;4993734;28;20055;-77
2021/10/17 03:59:08;;;;;;;5.03;1.10;;;8.20;99.90;;;6.66;86.43;100984.63;5016747;28;20056;-78
2021/10/17 04:01:34;;;;;;;8.20;2.67;;;8.20;99.90;;;6.67;87.00;100970.63;5036260;28;20491;-77
2021/10/17 04:04:00;;;;;;;4.95;1.20;;;8.20;99.90;;;6.70;86.54;100974.03;5020277;28;20580;-78
2021/10/17 04:06:26;;;;;;;3.75;1.38;;;8.20;99.90;;;6.69;86.63;100979.31;5017607;28;20415;-77
2021/10/17 04:08:52;;;;;;;7.50;1.10;;;8.20;99.90;;;6.66;86.74;100975.03;5062673;28;20073;-78
2021/10/17 04:11:20;;;;;;;10.80;1.65;;;8.10;99.90;;;6.64;86.84;100968.97;5010098;28;20533;-77
2021/10/17 04:13:48;;;;;;;2.47;0.90;;;8.20;99.90;;;6.63;86.87;100966.38;5031089;28;20557;-77
2021/10/17 04:16:14;;;;;;;7.68;1.67;;;8.10;99.90;;;6.61;87.46;100971.69;5007779;28;20017;-77
2021/10/17 04:18:40;;;;;;;8.82;1.60;;;8.10;99.90;;;6.64;87.40;100968.97;5004226;28;20072;-78
2021/10/17 04:21:06;;;;;;;3.47;1.00;;;;;;;6.64;86.74;100962.88;4999749;28;20053;-78
2021/10/17 04:23:33;;;;;;;4.70;1.00;;;8.10;99.90;;;6.64;86.81;100961.13;5013959;28;20159;-78
2021/10/17 04:25:59;;;;;;;4.45;1.63;;;8.10;99.90;;;6.64;87.42;100955.03;5026985;28;20054;-77
2021/10/17 04:28:32;;;;;;;5.50;1.25;;;8.10;99.90;;;6.64;87.49;100953.28;5013677;28;20185;-78
2021/10/17 04:30:58;;;;;;;6.50;1.10;;;8.10;99.90;;;6.62;87.26;100946.38;5024972;28;20083;-78
2021/10/17 04:33:24;;;;;;;4.78;1.08;;;8.10;99.90;;;6.61;87.58;100948.13;4997072;28;20485;-78
2021/10/17 04:35:50;;;;;;;4.85;1.02;;;8.20;99.90;;;6.65;87.52;100941.03;5009010;28;20062;-77
2021/10/17 04:38:20;;;;;;;7.30;1.23;;;8.10;99.90;;;6.63;87.59;100941.09;5049879;28;20061;-78
2021/10/17 04:40:46;;;;;;;6.43;1.15;;;8.20;99.90;;;6.62;87.23;100946.38;5016548;28;20432;-77
2021/10/17 04:43:12;;;;;;;5.20;1.08;;;8.10;99.90;;;6.63;87.95;100945.44;5001576;28;20071;-77
2021/10/17 04:45:42;;;;;;;5.18;1.20;;;8.10;99.90;;;6.60;88.09;100935.94;4995501;28;20144;-77
2021/10/17 04:48:08;;;;;;;5.93;1.38;;;8.10;99.90;;;6.59;88.19;100931.63;5004894;28;20462;-77
2021/10/17 04:50:37;;;;;;;9.98;1.60;;;8.10;99.90;;;6.59;88.06;100934.22;4987696;28;20080;-77
2021/10/17 04:53:04;;;;;;;8.07;1.33;;;8.10;99.90;;;6.61;87.85;100936.78;5003616;28;20140;-78
2021/10/17 04:55:30;;;;;;;4.07;0.93;;;8.10;99.90;;;6.62;88.05;100936.75;4996638;28;20543;-78
2021/10/17 04:57:57;;;;;;;8.43;1.48;;;8.10;99.90;;;6.67;86.89;100936.63;5009352;28;20060;-77
2021/10/17 05:00:28;;;;;;;5.15;0.98;;;8.20;99.90;;;6.65;87.52;100930.56;4986147;28;20055;-78
2021/10/17 05:02:54;;;;;;;6.25;0.95;;;8.10;99.90;;;6.67;86.74;100929.63;5003887;28;20057;-78
2021/10/17 05:05:20;;;;;;;6.55;1.40;;;8.20;99.90;;;6.71;86.51;100930.41;5009073;28;20085;-78
2021/10/17 05:07:46;;;;;;;6.45;1.35;;;8.20;99.90;;;6.68;87.16;100933.97;4990704;28;20115;-77
2021/10/17 05:10:12;;;;;;;3.58;1.20;;;8.20;99.90;;;6.66;87.44;100921.84;5002988;28;20217;-78
2021/10/17 05:12:40;;;;;;;5.03;1.13;;;8.10;99.90;;;6.70;87.19;100932.19;4991826;28;20512;-78
2021/10/17 05:15:09;;;;;;;5.32;1.40;;;8.20;99.90;;;6.65;87.21;100921.00;5003764;28;20096;-77
2021/10/17 05:17:35;;;;;;;10.43;1.60;;;8.20;99.90;;;6.67;86.75;100923.53;4997685;28;20118;-78
2021/10/17 05:20:01;;;;;;;5.95;1.20;;;8.10;99.90;;;6.67;87.60;100913.91;5000151;28;20062;-78
2021/10/17 05:22:28;;;;;;;6.97;1.15;;;8.20;99.90;;;6.68;87.09;100910.41;5010479;28;20535;-78
2021/10/17 05:24:56;;;;;;;9.60;2.10;;;8.20;99.90;;;6.68;87.02;100910.41;5017252;28;20114;-78
2021/10/17 05:27:22;;;;;;;12.00;1.67;;;8.20;99.90;;;6.68;87.01;100909.56;5011376;28;20048;-77
2021/10/17 05:29:48;;;;;;;7.00;0.98;;;8.20;99.90;;;6.73;86.88;100908.53;5062896;28;20089;-78
2021/10/17 05:32:14;;;;;;;5.63;1.27;;;8.20;99.90;;;6.70;86.58;100900.78;5022046;28;20137;-78
2021/10/17 05:34:40;;;;;;;5.05;1.40;;;8.20;99.90;;;6.70;87.00;100911.25;5019486;28;20064;-78
2021/10/17 05:37:06;;;;;;;3.53;1.33;;;8.20;99.90;;;6.68;87.15;100910.41;5003219;28;20087;-78
2021/10/17 05:39:32;;;;;;;13.35;1.58;;;8.20;99.90;;;6.69;87.45;100903.41;4985198;28;20068;-78
2021/10/17 05:41:58;;;;;;;6.72;1.65;;;8.20;99.90;;;6.71;87.03;100919.94;4986950;28;20470;-78
2021/10/17 05:44:24;;;;;;;6.47;1.35;;;8.20;99.90;;;6.72;87.18;100913.81;4989452;28;20513;-77
2021/10/17 05:46:50;;;;;;;6.63;1.40;;;8.20;99.90;;;6.70;87.46;100913.00;5010081;28;20175;-78
2021/10/17 05:49:16;;;;;;;6.05;1.60;;;8.20;99.90;;;6.68;87.44;100914.81;5010274;28;20100;-78
2021/10/17 05:51:42;;;;;;;3.30;1.10;;;8.20;99.90;;;6.73;87.11;100912.91;5030022;28;20145;-77
2021/10/17 05:54:08;;;;;;;6.32;1.67;;;8.20;99.90;;;6.75;87.03;100924.19;5011052;28;20621;-77
2021/10/17 05:56:34;;;;;;;4.70;1.35;;;8.20;99.90;;;6.75;86.91;100927.66;5016504;28;20335;-78
2021/10/17 05:59:00;;;;;;;3.53;1.40;;;8.30;99.90;;;6.80;86.19;100927.53;5020724;28;20055;-78
2021/10/17 06:01:31;;;;;;;7.28;1.50;;;8.30;99.90;;;6.85;86.45;100916.97;5030028;28;20077;-78
2021/10/17 06:03:57;;;;;;;11.32;1.23;;;8.30;99.90;;;6.88;85.64;100919.47;4991911;28;20059;-78
2021/10/17 06:06:23;;;;;;;6.32;1.23;;;8.40;99.90;;;6.87;85.50;100917.75;5003277;28;20484;-78
2021/10/17 06:08:49;;;;;;;8.20;1.70;;;8.40;99.90;;;6.87;86.23;100921.25;5026140;28;20409;-78
2021/10/17 06:11:15;;;;;;;3.65;1.00;;;8.30;99.90;;;6.87;86.07;100920.38;5019046;28;20077;-78
2021/10/17 06:13:41;;;;;;;4.43;1.45;;;8.40;99.90;;;6.87;86.20;100921.25;5003175;28;20597;-78
2021/10/17 06:16:09;;;;;;;5.85;1.52;;;8.30;99.90;;;6.89;86.32;100918.56;5042674;28;20060;-78
2021/10/17 06:18:35;;;;;;;8.88;1.45;;;8.40;99.90;;;6.95;85.88;100928.88;5027762;28;20052;-77
2021/10/17 06:21:02;;;;;;;3.83;1.35;;;8.40;99.90;;;6.96;86.27;100920.13;5000055;28;20064;-78
2021/10/17 06:23:28;;;;;;;3.92;1.15;;;8.50;99.90;;;6.96;85.99;100910.50;5042683;28;20050;-78
2021/10/17 06:25:54;;;;;;;7.10;1.35;;;8.50;99.90;;;7.01;85.08;100914.75;5023252;28;20130;-78
2021/10/17 06:28:20;;;;;;;5.05;1.00;;;8.50;99.90;;;7.05;85.04;100919.84;5008364;28;20086;-77
2021/10/17 06:30:46;;;;;;;6.85;1.13;;;8.50;99.90;;;7.06;85.19;100912.84;5036888;28;20074;-78
2021/10/17 06:33:12;;;;;;;12.60;2.08;;;8.50;99.90;;;7.05;86.02;100913.78;5019252;28;20083;-77
2021/10/17 06:35:38;;;;;;;7.63;1.27;;;;;;;7.09;85.73;100925.88;4997238;28;20046;-77
2021/10/17 06:38:04;;;;;;;8.25;1.48;;;8.50;99.90;;;7.08;85.53;100922.38;5041827;28;20104;-78
2021/10/17 06:40:30;;;;;;;9.85;1.73;;;8.60;99.90;;;7.14;84.57;100916.09;5022391;28;20063;-78
2021/10/17 06:42:57;;;;;;;5.50;1.20;;;8.60;99.90;;;7.13;85.68;100911.78;4990278;28;20061;-77
2021/10/17 06:45:24;;;;;;;3.63;1.10;;;8.60;99.90;;;7.13;85.47;100912.63;5019475;28;20585;-78
2021/10/17 06:47:49;;;;;;;10.25;1.65;;;8.60;99.90;;;7.17;85.80;100916.88;5003833;28;20157;-78
2021/10/17 06:50:23;;;;;;;4.22;1.60;;;8.60;99.90;;;7.18;86.08;100923.81;4992444;28;20076;-78
2021/10/17 06:52:51;;;;;;;6.90;1.45;;;8.60;99.90;;;7.24;85.26;100925.41;5017338;28;20064;-77
2021/10/17 06:55:18;;;;;;;11.10;2.22;;;8.70;99.90;;;7.25;84.77;100926.28;5015482;28;20083;-78
2021/10/17 06:57:46;;;;;;;7.55;1.50;;;8.70;99.90;;;7.26;84.88;100923.63;5037611;28;20537;-78
2021/10/17 07:00:14;;;;;;;8.63;1.90;;;8.70;99.90;;;7.25;85.53;100929.75;5045436;28;20051;-78
2021/10/17 07:02:40;;;;;;;10.75;1.55;;;8.70;99.90;;;7.28;86.03;100941.88;5055973;28;20055;-78
2021/10/17 07:05:06;;;;;;;9.05;2.08;;;8.70;99.90;;;7.28;86.00;100939.25;4997424;28;20407;-78
2021/10/17 07:07:32;;;;;;;10.88;1.95;;;8.70;99.90;;;7.28;86.30;100892.13;4990597;28;20129;-77
2021/10/17 07:10:02;;;;;;;7.47;1.48;;;8.70;99.90;;;7.32;87.09;100948.75;5012163;28;20529;-78
2021/10/17 07:12:28;;;;;;;4.63;1.55;;;8.70;99.90;;;7.32;87.06;100933.03;5021228;28;20631;-78
2021/10/17 07:14:54;;;;;;;7.72;1.83;;;8.80;99.90;;;7.34;87.43;100931.22;5005504;28;20057;-78
2021/10/17 07:17:21;;;;;;;8.65;1.88;;;8.70;99.90;;;7.30;87.36;100925.25;5025629;28;20048;-78
2021/10/17 07:19:48;;;;;;;6.78;1.85;;;8.70;99.90;;;7.36;87.97;100930.31;5004170;28;20049;-78
2021/10/17 07:22:14;;;;;;;11.27;1.90;;;8.80;99.90;;;7.39;87.52;100932.81;4995702;28;20017;-78
2021/10/17 07:24:40;;;;;;;9.40;2.08;;;8.80;99.90;;;7.44;87.35;100931.81;5005174;28;20063;-78
2021/10/17 07:27:06;;;;;;;5.30;1.88;;;9.90;99.90;;;7.50;87.56;100948.22;5006280;28;20065;-78
2021/10/17 07:29:32;;;;;;;10.23;2.38;;;8.90;99.90;;;7.54;87.77;100944.59;5014053;28;20066;-78
2021/10/17 07:31:58;;;;;;;4.10;1.80;;;9.00;99.90;;;7.58;87.42;100938.34;4995870;28;20070;-78
2021/10/17 07:34:24;;;;;;;11.32;2.10;;;9.00;99.90;;;7.63;88.14;100937.38;5024766;28;20062;-78
2021/10/17 07:36:50;;;;;;;6.05;1.75;;;9.00;99.90;;;7.67;87.99;100942.47;4999410;28;20129;-78
2021/10/17 07:39:16;;;;;;;5.93;1.90;;;9.10;99.90;;;7.70;87.43;100949.38;5020628;28;20058;-77
2021/10/17 07:41:48;;;;;;;5.78;1.83;;;9.10;99.90;;;7.75;87.86;100955.31;5009830;28;20557;-77
2021/10/17 07:44:17;;;;;;;11.88;1.98;;;9.20;99.90;;;7.85;87.41;100958.50;4980031;28;20156;-78
2021/10/17 07:46:43;;;;;;;12.18;2.42;;;9.30;99.90;;;8.06;87.41;100968.31;5013360;28;20092;-77
2021/10/17 07:49:09;;;;;;;6.03;2.17;;;9.50;99.90;;;8.20;86.28;100976.56;4988729;28;20060;-78
2021/10/17 07:51:35;;;;;;;6.53;2.22;;;9.60;99.90;;;8.41;85.59;100987.31;4999920;28;20588;-78
2021/10/17 07:54:04;;;;;;;11.63;2.17;;;9.70;99.90;;;8.51;84.75;100980.84;4965683;28;20059;-78
2021/10/17 07:56:31;;;;;;;12.38;2.05;;;9.80;99.90;;;8.51;84.48;100982.59;5037398;28;20101;-78
2021/10/17 07:58:57;;;;;;;4.53;2.00;;;9.70;99.90;;;8.47;84.95;100975.78;4999696;28;20064;-78
2021/10/17 08:01:22;;;;;;;8.50;2.15;;;9.60;99.90;;;8.26;84.76;100962.41;5052539;28;20071;-78
2021/10/17 08:03:48;;;;;;;6.97;2.25;;;9.50;99.90;;;8.19;85.63;100958.28;5008008;28;20082;-78
2021/10/17 08:06:14;;;;;;;9.13;2.55;;;9.50;99.90;;;8.15;86.02;100956.66;5037548;28;20128;-78
2021/10/17 08:08:40;;;;;;;8.27;2.20;;;9.50;99.90;;;8.25;86.80;100968.59;5028542;28;20166;-78
2021/10/17 08:11:07;;;;;;;5.25;2.13;;;8.60;99.90;;;8.35;86.43;100967.34;5031576;28;20078;-78
2021/10/17 08:13:32;;;;;;;16.85;3.25;;;9.60;99.90;;;8.40;86.76;100961.94;5027077;28;20082;-78
2021/10/17 08:15:58;;;;;;;10.25;2.30;;;9.70;99.90;;;8.48;86.53;100969.59;5021524;28;20053;-78
2021/10/17 08:18:26;;;;;;;7.70;2.20;;;9.70;99.90;;;8.44;86.51;100944.38;5011291;28;20065;-78
2021/10/17 08:20:53;;;;;;;9.35;2.33;;;9.70;99.90;;;8.52;86.85;100966.81;5006299;28;20566;-78
2021/10/17 08:23:22;;;;;;;10.10;2.83;;;9.90;99.90;;;8.87;85.67;100993.59;5017287;28;20063;-78
2021/10/17 08:25:48;;;;;;;13.55;2.63;;;10.10;99.90;;;9.24;84.59;101006.31;5001267;28;20129;-78
2021/10/17 08:28:14;;;;;;;6.82;2.30;;;10.60;99.90;;;9.84;82.36;101035.56;5024085;28;20082;-78
2021/10/17 08:30:44;;;;;;;9.25;2.47;;;10.80;99.90;;;9.87;81.31;101026.72;5004704;28;20074;-78
2021/10/17 08:33:10;;;;;;;7.97;2.47;;;10.80;99.90;;;9.95;80.94;101029.03;4974837;28;20101;-78
2021/10/17 08:35:38;;;;;;;11.73;2.97;;;11.10;99.90;;;10.80;78.21;101074.75;5018005;28;20063;-78
2021/10/17 08:38:04;;;;;;;13.63;2.50;;;11.80;99.90;;;11.59;74.87;101101.22;4986636;28;20097;-78
2021/10/17 08:40:31;;;;;;;10.32;3.03;;;12.40;99.90;;;12.68;72.94;101134.91;5018928;28;20032;-78
2021/10/17 08:42:58;;;;;;;14.60;2.33;;;12.70;99.90;;;12.05;71.88;101071.88;4999624;28;20476;-78
2021/10/17 08:45:24;;;;;;;8.82;2.30;;;12.30;99.90;;;11.48;73.10;101046.31;4987431;28;20064;-78
2021/10/17 08:47:55;;;;;;;11.57;2.60;;;11.90;99.90;;;11.09;75.33;101027.84;5045162;28;20070;-78
2021/10/17 08:50:21;;;;;;;11.43;2.60;;;11.80;99.90;;;10.79;78.39;101020.34;5007266;28;20074;-78
2021/10/17 08:52:48;;;;;;;15.93;2.60;;;;;;;10.53;80.45;101018.81;5013015;28;20063;-78
2021/10/17 08:55:14;;;;;;;17.50;3.30;;;11.40;99.90;;;10.33;80.20;100995.13;5035185;28;20029;-78
2021/10/17 08:57:40;;;;;;;7.25;2.88;;;11.30;99.90;;;10.55;79.98;101026.66;5023593;28;20460;-78
2021/10/17 09:00:36;;;;;;;11.32;2.85;;;11.60;99.90;;;10.86;79.20;101032.38;5004874;28;20422;-77
2021/10/17 09:03:06;;;;;;;10.85;3.28;;;11.70;99.90;;;11.02;79.23;101040.44;5011028;28;20075;-78
2021/10/17 09:05:45;;;;;;;10.68;3.15;;;11.80;99.90;;;10.90;80.01;101038.34;5000584;28;20488;-78
2021/10/17 09:08:32;;;;;;;11.07;3.15;;;11.70;99.90;;;10.90;81.62;101042.75;4985747;28;20024;-78
2021/10/17 09:11:38;;;;;;;7.18;2.95;;;11.80;99.90;;;11.04;82.15;101038.59;4989462;28;20463;-78
2021/10/17 09:14:37;;;;;;;9.32;3.72;;;11.90;99.90;;;10.62;82.77;101021.06;4991442;28;20074;-78
2021/10/17 09:17:10;;;;;;;7.95;2.38;;;11.70;99.90;;;10.47;84.05;101011.19;4984196;28;20070;-78
2021/10/17 09:20:06;;;;;;;5.65;2.65;;;11.50;99.90;;;10.30;84.81;101013.66;5011027;28;20086;-78
2021/10/17 09:22:37;;;;;;;9.85;2.40;;;11.40;99.90;;;10.25;85.70;101008.56;4993522;28;20164;-78
2021/10/17 09:25:06;;;;;;;8.23;2.88;;;11.50;99.90;;;10.17;85.39;100992.22;4983804;28;20063;-78
2021/10/17 09:28:00;;;;;;;7.47;2.75;;;11.10;99.90;;;9.72;84.92;100972.94;4972533;28;20140;-78
2021/10/17 09:30:46;;;;;;;9.68;3.30;;;10.90;99.90;;;9.68;87.44;100979.25;4984427;28;20074;-78
2021/10/17 09:33:59;;;;;;;16.00;3.35;;;10.80;99.90;;;9.57;88.25;100984.06;4982205;28;20068;-78
2021/10/17 09:36:40;;;;;;;7.85;3.03;;;10.70;99.90;;;9.41;88.56;100986.41;4993587;28;20090;-78
2021/10/17 09:39:31;;;;;;;9.77;3.08;;;10.70;99.90;;;9.57;88.97;101003.31;4988363;28;20106;-78
2021/10/17 09:42:51;;;;;;;7.93;3.17;;;10.90;99.90;;;9.87;88.85;101026.72;4986741;28;20456;-78
2021/10/17 09:45:37;;;;;;;13.88;3.20;;;11.20;99.90;;;10.07;87.49;101087.31;4992294;28;20073;-78
2021/10/17 09:48:59;;;;;;;9.30;3.00;;;11.20;99.90;;;10.08;87.79;101051.31;4992885;28;20062;-78
2021/10/17 09:51:46;;;;;;;10.93;3.28;;;11.40;99.90;;;10.32;88.51;101053.94;4977798;28;20308;-78
2021/10/17 09:54:38;;;;;;;;;;;11.40;99.90;;;10.18;87.56;101033.41;4988866;28;20114;-78
2021/10/17 09:57:46;;;;;;;14.75;3.22;;;11.50;99.90;;;10.40;87.11;101049.22;4971921;28;21085;-78
2021/10/17 10:00:46;;;;;;;9.48;3.13;;;11.50;99.90;;;10.56;87.37;101057.34;5005592;28;20027;-78
2021/10/17 10:03:21;;;;;;;14.32;3.42;;;11.60;99.90;;;10.42;87.07;101042.97;5019580;28;20538;-78
2021/10/17 10:05:54;;;;;;;9.57;3.55;;;11.40;99.90;;;10.32;88.45;101035.50;4978135;28;20051;-78
2021/10/17 10:08:27;;;;;;;10.32;3.25;;;11.60;99.90;;;10.50;88.21;101045.28;4998372;28;20055;-78
2021/10/17 10:11:03;;;;;;;16.10;3.35;;;11.80;99.90;;;10.63;87.72;101054.41;5015150;28;20170;-77
2021/10/17 10:14:19;;;;;;;12.32;3.38;;;11.80;99.90;;;10.59;88.45;101044.06;5008662;28;20493;-77
2021/10/17 10:17:56;;;;;;;10.75;3.08;;;11.80;99.90;;;10.40;87.87;101031.63;4967573;28;20090;-77
2021/10/17 10:21:07;;;;;;;10.52;2.92;;;11.50;99.90;;;10.28;88.87;101018.97;4991143;28;20338;-77
2021/10/17 10:24:13;;;;;;;9.85;2.83;;;11.50;99.90;;;10.49;88.86;101027.78;5010788;28;20041;-77
2021/10/17 10:26:43;;;;;;;10.57;3.38;;;11.90;99.90;;;11.02;88.45;101061.53;4997250;28;20523;-77
2021/10/17 10:34:01;;;;;;;17.10;3.42;;;12.60;99.90;;;11.47;86.17;101057.78;4999552;28;20080;-77
2021/10/17 10:38:10;;;;;;;9.32;2.67;;;12.70;99.90;;;11.59;85.10;101061.66;4998457;28;20523;-77
2021/10/17 10:41:31;;;;;;;4.22;2.22;;;12.60;99.90;;;11.50;86.27;101059.44;4982572;28;20033;-77